Time;durP1;ratioP1;P1;durP2;ratioP2;P2;SDS_P1;SDS_P2;PMS_P1;PMS_P2;Temp;Humidity;BMP_temperature;BMP_pressure;BME280_temperature;BME280_humidity;BME280_pressure;Samples;Min_cycle;Max_cycle;Signal;HPM_P1;HPM_P2
2022/07/30 00:01:24;;;;;;;8.38;6.32;;;15.00;99.90;;;;;;4938765;28;94560;-30
2022/07/30 00:03:49;;;;;;;6.32;5.82;;;15.00;99.90;;;;;;4937463;28;92999;-30
2022/07/30 00:06:15;;;;;;;7.07;6.38;;;15.00;99.90;;;;;;4938405;28;94873;-31
2022/07/30 00:08:41;;;;;;;8.80;6.70;;;14.90;99.90;;;;;;4938460;28;94629;-30
2022/07/30 00:11:07;;;;;;;6.65;6.07;;;14.90;99.90;;;;;;4938502;28;92137;-29
2022/07/30 00:13:33;;;;;;;9.30;6.32;;;14.90;99.90;;;;;;4938657;28;93113;-33
2022/07/30 00:15:59;;;;;;;7.55;6.85;;;14.90;99.90;;;;;;4976637;22;94232;-32
2022/07/30 00:18:24;;;;;;;7.00;6.32;;;14.90;99.90;;;;;;4937978;28;94369;-31
2022/07/30 00:20:50;;;;;;;17.25;8.27;;;14.90;99.90;;;;;;4938320;28;93067;-30
2022/07/30 00:23:16;;;;;;;6.68;6.07;;;14.90;99.90;;;;;;4937721;28;93051;-29
2022/07/30 00:25:41;;;;;;;8.00;6.97;;;14.80;99.90;;;;;;4938867;28;95018;-29
2022/07/30 00:28:07;;;;;;;9.68;6.68;;;14.80;99.90;;;;;;4936809;28;94932;-32
2022/07/30 00:30:33;;;;;;;8.25;6.55;;;14.80;99.90;;;;;;4938834;28;92767;-29
2022/07/30 00:32:58;;;;;;;7.80;6.57;;;14.80;99.90;;;;;;4937463;28;92354;-32
2022/07/30 00:35:24;;;;;;;6.40;5.90;;;14.80;99.90;;;;;;4938095;28;95647;-30
2022/07/30 00:37:49;;;;;;;14.27;6.13;;;14.80;99.90;;;;;;4937722;28;94475;-31
2022/07/30 00:40:15;;;;;;;7.00;5.95;;;14.80;99.90;;;;;;4938278;28;92096;-32
2022/07/30 00:42:45;;;;;;;6.53;5.90;;;14.80;99.90;;;;;;4938008;28;93465;-28
2022/07/30 00:45:12;;;;;;;6.38;5.93;;;14.70;99.90;;;;;;4937920;28;93493;-29
2022/07/30 00:47:38;;;;;;;7.13;6.57;;;14.60;99.90;;;;;;4936908;28;94569;-30
2022/07/30 00:50:06;;;;;;;8.18;7.38;;;14.60;99.90;;;;;;4938105;28;94423;-34
2022/07/30 00:52:32;;;;;;;8.80;6.60;;;14.60;99.90;;;;;;4936788;28;92973;-32
2022/07/30 00:54:58;;;;;;;6.05;5.45;;;14.60;99.90;;;;;;4936886;28;94457;-32
2022/07/30 00:57:25;;;;;;;6.13;4.82;;;14.60;99.90;;;;;;4937058;28;94910;-34
2022/07/30 00:59:51;;;;;;;5.75;5.25;;;14.50;99.90;;;;;;4938573;28;92139;-30
2022/07/30 01:02:16;;;;;;;11.30;6.78;;;14.60;99.90;;;;;;4937226;28;94660;-30
2022/07/30 01:04:42;;;;;;;7.20;5.20;;;14.60;99.90;;;;;;4937541;28;93693;-29
2022/07/30 01:07:07;;;;;;;8.38;7.43;;;14.60;99.90;;;;;;4936245;28;93971;-30
2022/07/30 01:09:33;;;;;;;7.10;6.32;;;14.60;99.90;;;;;;4938589;28;92808;-29
2022/07/30 01:12:00;;;;;;;6.22;5.63;;;14.60;99.90;;;;;;4937349;28;95309;-29
2022/07/30 01:14:25;;;;;;;6.68;5.85;;;14.60;99.90;;;;;;4936396;28;95044;-33
2022/07/30 01:16:51;;;;;;;7.68;6.53;;;14.60;99.90;;;;;;4937596;28;93970;-34
2022/07/30 01:22:29;;;;;;;5.88;5.00;;;14.60;99.90;;;;;;4937762;28;93469;-32
2022/07/30 01:25:03;;;;;;;7.05;6.35;;;14.60;99.90;;;;;;4938076;28;95509;-29
2022/07/30 01:27:52;;;;;;;7.20;6.22;;;14.60;99.90;;;;;;4936788;28;94947;-29
2022/07/30 01:30:20;;;;;;;7.20;6.40;;;14.60;99.90;;;;;;4937258;28;91415;-31
2022/07/30 01:32:46;;;;;;;;;;;14.60;99.90;;;;;;4937829;28;93554;-33
2022/07/30 01:35:13;;;;;;;7.78;7.03;;;14.60;99.90;;;;;;4939234;28;95790;-29
2022/07/30 01:37:41;;;;;;;7.88;7.18;;;14.50;99.90;;;;;;4936365;28;95320;-31
2022/07/30 01:40:08;;;;;;;7.53;6.82;;;14.50;99.90;;;;;;4936707;28;92246;-30
2022/07/30 01:42:36;;;;;;;8.68;7.85;;;14.50;99.90;;;;;;4937459;28;93495;-30
2022/07/30 01:45:02;;;;;;;9.87;7.50;;;14.50;99.90;;;;;;4937041;28;93725;-31
2022/07/30 01:47:31;;;;;;;10.00;7.47;;;14.40;99.90;;;;;;4936848;28;94811;-30
2022/07/30 01:49:58;;;;;;;11.68;7.57;;;14.40;99.90;;;;;;4937035;28;93707;-32
2022/07/30 01:52:29;;;;;;;10.75;9.65;;;14.30;99.90;;;;;;4936854;28;92112;-31
2022/07/30 01:54:57;;;;;;;11.35;9.15;;;14.30;99.90;;;;;;4936494;28;94015;-31
2022/07/30 01:57:24;;;;;;;8.18;7.45;;;14.30;99.90;;;;;;4937242;28;93558;-30
2022/07/30 01:59:56;;;;;;;10.40;7.57;;;14.30;99.90;;;;;;4937948;28;94551;-29
2022/07/30 02:02:22;;;;;;;8.95;7.10;;;14.30;99.90;;;;;;4936739;28;93186;-33
2022/07/30 02:04:48;;;;;;;8.70;7.85;;;14.30;99.90;;;;;;4936053;28;94855;-30
2022/07/30 02:07:21;;;;;;;18.45;7.38;;;14.20;99.90;;;;;;4935845;28;94396;-32
2022/07/30 02:10:13;;;;;;;8.10;6.75;;;14.30;99.90;;;;;;4937142;28;95558;-31
2022/07/30 02:12:45;;;;;;;9.45;7.38;;;14.20;99.90;;;;;;4937222;28;93038;-31
2022/07/30 02:15:24;;;;;;;8.50;7.65;;;14.20;99.90;;;;;;4935335;28;95139;-33
2022/07/30 02:17:59;;;;;;;;;;;14.10;99.90;;;;;;4936122;28;93315;-31
2022/07/30 02:20:28;;;;;;;8.00;7.30;;;14.10;99.90;;;;;;4942388;28;92943;-32
2022/07/30 02:22:57;;;;;;;9.68;8.00;;;14.10;99.90;;;;;;4941139;28;93999;-29
2022/07/30 02:25:24;;;;;;;8.30;7.32;;;14.00;99.90;;;;;;4938985;28;95790;-30
2022/07/30 02:27:54;;;;;;;9.80;7.32;;;14.00;99.90;;;;;;4939286;28;95076;-28
2022/07/30 02:30:25;;;;;;;9.57;8.27;;;14.00;99.90;;;;;;4939438;28;94259;-31
2022/07/30 02:32:54;;;;;;;8.35;7.55;;;14.00;99.90;;;;;;4939968;28;93362;-34
2022/07/30 02:35:22;;;;;;;9.68;7.65;;;14.00;99.90;;;;;;4940049;28;95834;-31
2022/07/30 02:37:52;;;;;;;12.30;7.72;;;14.00;99.90;;;;;;4939104;28;95003;-32
2022/07/30 02:40:21;;;;;;;10.90;9.77;;;14.00;99.90;;;;;;4939567;28;93055;-30
2022/07/30 02:42:50;;;;;;;11.60;10.20;;;14.00;99.90;;;;;;4938289;28;93483;-29
2022/07/30 02:45:17;;;;;;;14.43;10.27;;;14.00;99.90;;;;;;4939016;28;94225;-30
2022/07/30 02:47:45;;;;;;;12.43;11.20;;;14.00;99.90;;;;;;4939297;28;93041;-34
2022/07/30 02:50:12;;;;;;;13.95;10.45;;;14.00;99.90;;;;;;4938895;28;92140;-30
2022/07/30 02:52:39;;;;;;;12.32;10.82;;;13.90;99.90;;;;;;4937984;28;94038;-29
2022/07/30 02:55:07;;;;;;;13.67;11.27;;;13.90;99.90;;;;;;4938450;28;94560;-29
2022/07/30 02:57:34;;;;;;;12.48;11.18;;;13.90;99.90;;;;;;4938825;28;94699;-29
2022/07/30 03:00:02;;;;;;;13.05;11.05;;;13.90;99.90;;;;;;4939677;28;92225;-29
2022/07/30 03:02:28;;;;;;;10.98;9.98;;;13.90;99.90;;;;;;4938950;28;92171;-30
2022/07/30 03:04:56;;;;;;;11.07;9.85;;;13.90;99.90;;;;;;4938170;28;95458;-30
2022/07/30 03:07:22;;;;;;;12.77;11.43;;;13.90;99.90;;;;;;4939131;28;94454;-30
2022/07/30 03:09:49;;;;;;;12.35;11.15;;;13.90;99.90;;;;;;4939682;28;93459;-29
2022/07/30 03:12:15;;;;;;;11.93;10.73;;;13.90;99.90;;;;;;4938308;28;93660;-33
2022/07/30 03:14:41;;;;;;;17.38;11.52;;;13.90;99.90;;;;;;4938477;28;93386;-33
2022/07/30 03:17:09;;;;;;;10.35;9.35;;;13.90;99.90;;;;;;4937982;28;95539;-30
2022/07/30 03:19:38;;;;;;;10.25;8.75;;;13.90;99.90;;;;;;4939366;28;94186;-33
2022/07/30 03:22:06;;;;;;;11.73;8.98;;;13.80;99.90;;;;;;4938947;28;92167;-33
2022/07/30 03:24:33;;;;;;;11.63;10.52;;;13.80;99.90;;;;;;4938928;28;94315;-30
2022/07/30 03:27:02;;;;;;;12.43;9.98;;;13.80;99.90;;;;;;4938698;28;94481;-33
2022/07/30 03:29:29;;;;;;;10.70;9.55;;;13.70;99.90;;;;;;4937656;28;92076;-31
2022/07/30 03:31:56;;;;;;;10.40;9.37;;;13.70;99.90;;;;;;4938799;28;93183;-32
2022/07/30 03:34:23;;;;;;;12.45;11.23;;;13.70;99.90;;;;;;4938207;28;94145;-28
2022/07/30 03:36:49;;;;;;;14.38;11.85;;;13.70;99.90;;;;;;4938835;28;92938;-34
2022/07/30 03:39:16;;;;;;;13.10;11.90;;;13.70;99.90;;;;;;4938201;28;93326;-32
2022/07/30 03:41:43;;;;;;;10.77;9.30;;;13.60;99.90;;;;;;4937403;28;95246;-29
2022/07/30 03:44:09;;;;;;;13.65;11.48;;;13.60;99.90;;;;;;4937769;28;95667;-30
2022/07/30 03:46:37;;;;;;;14.25;12.70;;;13.60;99.90;;;;;;4938147;28;94549;-31
2022/07/30 03:49:04;;;;;;;12.30;10.90;;;13.60;99.90;;;;;;4938399;28;94114;-32
2022/07/30 03:51:35;;;;;;;15.63;12.95;;;13.60;99.90;;;;;;4936977;28;94475;-29
2022/07/30 03:54:03;;;;;;;14.60;10.48;;;13.50;99.90;;;;;;4937215;28;94588;-29
2022/07/30 03:56:28;;;;;;;13.80;12.50;;;13.50;99.90;;;;;;4937013;28;94477;-30
2022/07/30 03:58:54;;;;;;;14.13;12.68;;;13.50;99.90;;;;;;4938765;28;92038;-31
2022/07/30 04:01:26;;;;;;;13.43;12.10;;;13.50;99.90;;;;;;4937809;28;94762;-30
2022/07/30 04:03:52;;;;;;;14.63;12.05;;;13.50;99.90;;;;;;4938095;28;96456;-29
2022/07/30 04:06:17;;;;;;;13.02;11.48;;;13.50;99.90;;;;;;4936444;28;94918;-31
2022/07/30 04:08:43;;;;;;;20.23;12.73;;;13.60;99.90;;;;;;4938151;28;93042;-32
2022/07/30 04:11:09;;;;;;;13.85;12.43;;;13.60;99.90;;;;;;4937278;28;92977;-32
2022/07/30 04:13:34;;;;;;;18.02;11.40;;;13.60;99.90;;;;;;4937385;28;94816;-32
2022/07/30 04:16:35;;;;;;;15.32;12.18;;;13.60;99.90;;;;;;4936639;28;96573;-32
2022/07/30 04:19:02;;;;;;;14.73;13.30;;;13.70;99.90;;;;;;4936909;28;93208;-28
2022/07/30 04:21:30;;;;;;;13.35;11.35;;;13.70;99.90;;;;;;4936938;28;93937;-30
2022/07/30 04:23:58;;;;;;;16.73;10.35;;;13.70;99.90;;;;;;4937813;28;93781;-30
2022/07/30 04:26:24;;;;;;;12.10;11.00;;;13.70;99.90;;;;;;4936984;28;94174;-30
2022/07/30 04:28:50;;;;;;;19.98;12.27;;;13.70;99.90;;;;;;4937938;28;92368;-30
2022/07/30 04:31:16;;;;;;;12.48;11.27;;;13.70;99.90;;;;;;4936251;28;93429;-33
2022/07/30 04:33:45;;;;;;;15.00;11.73;;;13.70;99.90;;;;;;4936512;28;94953;-32
2022/07/30 04:36:10;;;;;;;11.60;10.45;;;13.70;99.90;;;;;;4936732;28;94629;-31
2022/07/30 04:38:36;;;;;;;15.48;12.32;;;13.80;99.90;;;;;;4937608;28;93504;-31
2022/07/30 04:41:01;;;;;;;12.77;11.40;;;13.80;99.90;;;;;;4936387;28;94692;-31
2022/07/30 04:43:27;;;;;;;13.80;12.50;;;13.90;99.90;;;;;;4936566;28;95256;-30
2022/07/30 04:45:52;;;;;;;12.80;11.45;;;14.10;99.90;;;;;;4935980;28;94801;-29
2022/07/30 04:48:18;;;;;;;13.65;11.07;;;14.30;99.90;;;;;;4937322;28;92070;-31
2022/07/30 04:50:50;;;;;;;12.70;10.65;;;14.50;99.90;;;;;;4937022;28;93409;-31
2022/07/30 04:53:18;;;;;;;13.65;11.95;;;14.70;99.90;;;;;;4936445;28;95018;-32
2022/07/30 04:55:47;;;;;;;12.20;11.05;;;14.80;99.90;;;;;;4936255;28;95258;-30
2022/07/30 04:58:15;;;;;;;11.10;9.25;;;15.00;99.90;;;;;;4936640;28;93195;-32
2022/07/30 05:00:43;;;;;;;12.98;11.68;;;15.10;99.90;;;;;;4937309;28;93289;-30
2022/07/30 05:03:11;;;;;;;10.90;9.80;;;15.30;99.90;;;;;;4936803;28;94648;-33
2022/07/30 05:05:38;;;;;;;12.70;10.90;;;15.40;99.90;;;;;;4937301;28;94818;-33
2022/07/30 05:08:04;;;;;;;12.23;10.93;;;15.50;99.90;;;;;;4936590;28;94046;-29
2022/07/30 05:10:30;;;;;;;14.32;10.63;;;15.60;99.90;;;;;;4936205;28;93062;-30
2022/07/30 05:12:56;;;;;;;10.38;9.35;;;15.70;99.90;;;;;;4937316;28;93904;-30
2022/07/30 05:15:22;;;;;;;11.63;9.73;;;15.80;99.90;;;;;;4936243;28;94462;-30
2022/07/30 05:17:48;;;;;;;9.60;8.60;;;15.80;99.90;;;;;;4937324;28;94814;-33
2022/07/30 05:20:13;;;;;;;9.63;8.73;;;15.90;99.90;;;;;;4936007;28;94100;-30
2022/07/30 05:22:39;;;;;;;12.27;10.10;;;15.90;99.90;;;;;;4936518;28;94857;-32
2022/07/30 05:25:05;;;;;;;13.93;10.05;;;16.10;99.90;;;;;;4936224;28;94694;-32
2022/07/30 05:27:30;;;;;;;10.60;9.60;;;16.20;99.90;;;;;;4936494;28;92970;-31
2022/07/30 05:29:56;;;;;;;14.35;11.05;;;16.30;99.90;;;;;;4936933;28;93391;-30
2022/07/30 05:32:22;;;;;;;12.32;9.65;;;16.40;99.90;;;;;;4935937;28;95961;-31
2022/07/30 05:34:47;;;;;;;12.80;10.23;;;16.60;99.90;;;;;;4936676;28;94766;-31
2022/07/30 05:37:13;;;;;;;13.43;10.27;;;16.70;99.90;;;;;;4937194;28;92565;-31
2022/07/30 05:39:38;;;;;;;12.40;8.57;;;16.80;99.90;;;;;;4936205;28;92622;-30
2022/07/30 05:42:04;;;;;;;12.00;10.32;;;16.90;99.90;;;;;;4937055;28;94678;-31
2022/07/30 05:44:29;;;;;;;13.77;9.75;;;17.00;99.90;;;;;;4933278;28;95459;-33
2022/07/30 05:46:55;;;;;;;12.88;9.20;;;17.10;99.90;;;;;;4937225;28;93057;-32
2022/07/30 05:49:21;;;;;;;14.55;10.75;;;17.10;99.90;;;;;;4937061;28;92854;-31
2022/07/30 05:51:46;;;;;;;12.90;11.32;;;17.20;99.90;;;;;;4936514;28;95459;-31
2022/07/30 05:54:12;;;;;;;14.68;12.02;;;17.40;99.90;;;;;;4937877;28;95620;-31
2022/07/30 05:56:39;;;;;;;12.05;10.73;;;17.50;99.90;;;;;;4939851;28;94254;-32
2022/07/30 05:59:05;;;;;;;13.17;11.50;;;17.60;99.90;;;;;;4939986;28;94994;-32
2022/07/30 06:01:30;;;;;;;12.60;10.52;;;17.70;99.90;;;;;;4939898;28;93860;-30
2022/07/30 06:03:56;;;;;;;16.17;11.68;;;17.90;99.90;;;;;;4939578;28;93418;-32
2022/07/30 06:06:21;;;;;;;12.55;11.23;;;18.00;99.90;;;;;;4939630;28;92737;-31
2022/07/30 06:08:48;;;;;;;13.15;11.35;;;18.10;99.90;;;;;;4939133;28;93104;-30
2022/07/30 06:11:14;;;;;;;10.93;9.60;;;18.30;99.90;;;;;;4939437;28;94682;-29
2022/07/30 06:13:40;;;;;;;10.48;9.40;;;18.40;99.90;;;;;;4939657;28;94892;-32
2022/07/30 06:16:05;;;;;;;11.98;10.30;;;18.60;99.90;;;;;;4939776;28;93522;-36
2022/07/30 06:18:31;;;;;;;12.20;11.00;;;18.70;99.90;;;;;;4939655;28;94462;-29
2022/07/30 06:20:57;;;;;;;11.93;8.90;;;18.80;99.90;;;;;;4939232;28;94721;-30
2022/07/30 06:23:22;;;;;;;10.77;9.25;;;18.90;99.90;;;;;;4940430;28;93127;-31
2022/07/30 06:25:48;;;;;;;10.32;9.02;;;19.10;99.90;;;;;;4940277;28;92067;-31
2022/07/30 06:28:15;;;;;;;10.38;9.40;;;19.30;99.90;;;;;;4939633;28;92305;-32
2022/07/30 06:30:41;;;;;;;9.70;8.68;;;19.40;99.90;;;;;;4939750;28;94636;-30
2022/07/30 06:33:06;;;;;;;13.77;9.38;;;19.60;99.90;;;;;;4938627;28;94539;-32
2022/07/30 06:35:33;;;;;;;9.18;8.30;;;19.90;99.90;;;;;;4940457;28;94541;-31
2022/07/30 06:37:59;;;;;;;9.88;8.63;;;20.00;99.90;;;;;;4939870;28;93220;-30
2022/07/30 06:40:25;;;;;;;8.93;8.02;;;20.10;99.90;;;;;;4938642;28;95068;-32
2022/07/30 06:42:50;;;;;;;7.60;7.00;;;20.20;99.90;;;;;;4940090;28;94493;-31
2022/07/30 06:45:16;;;;;;;8.27;7.43;;;20.40;99.90;;;;;;4939579;28;94434;-33
2022/07/30 06:47:42;;;;;;;12.55;7.95;;;20.60;99.90;;;;;;4939146;28;93810;-30
2022/07/30 06:50:08;;;;;;;7.68;6.57;;;20.70;99.90;;;;;;4939234;28;93901;-32
2022/07/30 06:52:34;;;;;;;8.48;6.68;;;20.90;99.90;;;;;;4939053;28;93404;-33
2022/07/30 06:54:59;;;;;;;6.55;5.95;;;21.10;99.90;;;;;;4939757;28;94043;-32
2022/07/30 06:57:25;;;;;;;7.30;6.13;;;21.30;99.90;;;;;;4938727;28;93611;-31
2022/07/30 06:59:51;;;;;;;7.15;6.45;;;21.60;99.90;;;;;;4921405;28;93716;-31
2022/07/30 07:02:17;;;;;;;8.65;6.72;;;21.80;99.90;;;;;;4938683;28;95802;-30
2022/07/30 07:04:42;;;;;;;7.32;6.63;;;22.00;99.90;;;;;;4938442;28;92349;-32
2022/07/30 07:07:08;;;;;;;6.95;6.38;;;22.10;99.90;;;;;;4939551;28;92645;-30
2022/07/30 07:09:34;;;;;;;6.18;5.68;;;22.30;99.90;;;;;;4938896;28;94627;-32
2022/07/30 07:11:59;;;;;;;5.13;4.65;;;22.40;99.90;;;;;;4939416;28;94872;-32
2022/07/30 07:14:25;;;;;;;5.47;4.97;;;22.50;99.90;;;;;;4935147;28;91684;-32
2022/07/30 07:16:51;;;;;;;5.72;4.88;;;22.50;99.90;;;;;;4941561;28;94206;-30
2022/07/30 07:19:16;;;;;;;9.63;6.25;;;22.40;99.90;;;;;;4943239;28;93954;-31
2022/07/30 07:21:42;;;;;;;9.05;6.18;;;22.50;99.90;;;;;;4935803;28;95145;-33
2022/07/30 07:24:08;;;;;;;6.10;5.50;;;22.60;99.90;;;;;;4943934;28;92047;-31
2022/07/30 07:26:34;;;;;;;6.75;6.15;;;22.70;99.90;;;;;;4935586;28;94381;-31
2022/07/30 07:29:00;;;;;;;6.65;6.05;;;22.80;99.90;;;;;;4942074;28;94636;-32
2022/07/30 07:31:26;;;;;;;6.95;6.35;;;22.90;99.90;;;;;;4941229;28;94832;-30
2022/07/30 07:33:53;;;;;;;7.43;6.70;;;22.90;99.90;;;;;;4950662;28;92200;-32
2022/07/30 07:36:22;;;;;;;7.72;5.65;;;22.90;99.90;;;;;;4950406;28;92328;-31
2022/07/30 07:38:49;;;;;;;6.75;6.10;;;23.00;99.90;;;;;;4942736;28;95500;-31
2022/07/30 07:41:15;;;;;;;7.55;6.75;;;23.10;99.90;;;;;;4941299;28;93785;-36
2022/07/30 07:43:40;;;;;;;9.10;6.07;;;23.20;99.90;;;;;;4942955;28;93974;-32
2022/07/30 07:46:06;;;;;;;7.13;5.10;;;23.40;99.90;;;;;;4942974;28;94588;-33
2022/07/30 07:48:32;;;;;;;6.15;5.55;;;23.60;99.90;;;;;;4940732;28;95090;-30
2022/07/30 07:50:58;;;;;;;7.70;6.00;;;23.70;99.90;;;;;;4936562;28;94360;-33
2022/07/30 07:53:23;;;;;;;6.45;5.78;;;23.80;99.90;;;;;;4936980;28;94316;-34
2022/07/30 07:55:49;;;;;;;10.48;5.25;;;23.80;99.90;;;;;;4942332;28;92621;-33
2022/07/30 07:58:15;;;;;;;8.77;5.28;;;23.90;99.90;;;;;;4936105;28;93993;-31
2022/07/30 08:00:41;;;;;;;9.35;7.25;;;23.80;99.90;;;;;;4936722;28;94738;-30
2022/07/30 08:03:06;;;;;;;8.02;6.20;;;23.80;99.90;;;;;;4937485;28;92717;-31
2022/07/30 08:05:32;;;;;;;8.80;6.75;;;23.80;99.90;;;;;;4939923;28;94294;-32
2022/07/30 08:07:58;;;;;;;5.95;5.35;;;23.80;99.90;;;;;;4923439;28;94043;-31
2022/07/30 08:10:25;;;;;;;7.18;6.45;;;24.00;99.90;;;;;;4936778;28;94340;-33
2022/07/30 08:12:50;;;;;;;11.52;6.70;;;24.10;99.90;;;;;;4924702;28;93630;-31
2022/07/30 08:15:16;;;;;;;7.28;6.68;;;24.20;99.90;;;;;;4937729;28;93323;-32
2022/07/30 08:17:45;;;;;;;6.78;6.13;;;24.20;99.90;;;;;;4938680;28;94398;-31
2022/07/30 08:20:13;;;;;;;6.63;6.03;;;24.20;99.90;;;;;;4942202;28;94476;-31
2022/07/30 08:22:40;;;;;;;7.13;6.43;;;24.20;99.90;;;;;;4939033;28;93970;-33
2022/07/30 08:25:06;;;;;;;9.15;7.20;;;24.30;99.90;;;;;;4930696;28;92366;-35
2022/07/30 08:27:31;;;;;;;8.85;6.75;;;24.30;99.90;;;;;;4936863;28;93546;-34
2022/07/30 08:29:57;;;;;;;6.07;5.47;;;24.30;99.90;;;;;;4939809;28;93832;-31
2022/07/30 08:32:22;;;;;;;7.47;6.72;;;24.30;99.90;;;;;;4946955;28;93401;-30
2022/07/30 08:34:48;;;;;;;9.00;6.53;;;24.40;99.90;;;;;;4936122;28;94245;-33
2022/07/30 08:37:14;;;;;;;7.97;7.18;;;24.30;99.90;;;;;;4937862;28;94767;-32
2022/07/30 08:39:40;;;;;;;7.25;6.55;;;24.30;99.90;;;;;;4936713;28;94209;-32
2022/07/30 08:42:06;;;;;;;7.80;5.82;;;24.20;99.90;;;;;;4940023;28;94455;-34
2022/07/30 08:44:34;;;;;;;12.98;8.10;;;24.10;99.90;;;;;;4936659;28;94155;-33
2022/07/30 08:47:00;;;;;;;;;;;24.20;99.90;;;;;;4937720;28;95240;-32
2022/07/30 08:49:26;;;;;;;10.20;6.80;;;24.10;99.90;;;;;;4937936;28;93645;-32
2022/07/30 08:51:52;;;;;;;11.43;6.30;;;24.00;99.90;;;;;;4938298;28;92183;-32
2022/07/30 08:54:19;;;;;;;6.63;5.95;;;24.10;99.90;;;;;;4935789;28;92170;-33
2022/07/30 08:56:45;;;;;;;4.95;4.55;;;24.30;99.90;;;;;;4936829;28;95538;-30
2022/07/30 08:59:10;;;;;;;9.05;5.25;;;24.50;99.90;;;;;;4945529;28;95002;-32
2022/07/30 09:01:36;;;;;;;7.45;5.88;;;24.70;99.90;;;;;;4938603;28;93448;-33
2022/07/30 09:04:02;;;;;;;8.60;6.88;;;24.90;99.90;;;;;;4937957;28;94180;-32
2022/07/30 09:06:28;;;;;;;6.05;5.45;;;25.00;99.90;;;;;;4936066;28;94722;-34
2022/07/30 09:08:53;;;;;;;5.95;5.15;;;24.90;99.90;;;;;;4937144;28;95643;-32
2022/07/30 09:11:19;;;;;;;10.43;6.20;;;24.90;99.90;;;;;;4919067;28;93276;-33
2022/07/30 09:13:46;;;;;;;6.63;5.93;;;25.00;99.90;;;;;;4936675;28;94017;-34
2022/07/30 09:16:23;;;;;;;6.80;5.13;;;25.00;99.90;;;;;;4936818;28;92516;-34
2022/07/30 09:18:50;;;;;;;4.93;4.47;;;25.10;99.90;;;;;;4925013;28;93885;-32
2022/07/30 09:21:28;;;;;;;6.00;4.87;;;25.20;99.90;;;;;;4937097;28;93933;-31
2022/07/30 09:24:04;;;;;;;5.85;4.85;;;25.30;99.90;;;;;;4936287;28;94479;-34
2022/07/30 09:26:31;;;;;;;7.15;4.97;;;25.30;99.90;;;;;;4936861;28;94406;-34
2022/07/30 09:29:17;;;;;;;;;;;25.30;99.90;;;;;;4941801;28;94623;-30
2022/07/30 09:31:56;;;;;;;5.85;4.47;;;25.30;99.90;;;;;;4944266;28;92141;-32
2022/07/30 09:34:49;;;;;;;6.85;4.50;;;25.20;99.90;;;;;;4942412;28;94157;-33
2022/07/30 09:37:18;;;;;;;4.47;4.07;;;25.20;99.90;;;;;;4941503;28;94910;-34
2022/07/30 09:39:44;;;;;;;8.43;6.05;;;25.10;99.90;;;;;;4942880;28;94543;-31
2022/07/30 09:42:21;;;;;;;5.03;4.63;;;25.10;99.90;;;;;;4943739;28;92360;-31
2022/07/30 09:44:47;;;;;;;4.60;3.97;;;25.20;99.90;;;;;;4942070;28;92203;-31
2022/07/30 09:47:30;;;;;;;9.40;4.05;;;25.30;99.90;;;;;;4943093;28;94626;-34
2022/07/30 09:50:10;;;;;;;5.82;3.33;;;25.40;99.90;;;;;;4942243;28;94453;-34
2022/07/30 09:52:38;;;;;;;4.65;4.03;;;25.40;99.90;;;;;;4943713;28;93033;-35
2022/07/30 09:55:05;;;;;;;7.22;4.28;;;25.40;99.90;;;;;;4943852;28;94323;-31
2022/07/30 09:57:30;;;;;;;4.38;3.95;;;25.60;99.90;;;;;;4949001;28;94692;-34
2022/07/30 09:59:57;;;;;;;7.65;5.75;;;25.60;99.90;;;;;;4942450;28;95285;-33
2022/07/30 10:02:30;;;;;;;4.90;3.97;;;25.70;99.90;;;;;;4944855;28;93595;-34
2022/07/30 10:05:08;;;;;;;6.28;4.10;;;25.80;99.90;;;;;;4939672;28;94772;-33
2022/07/30 10:07:34;;;;;;;7.07;4.47;;;25.80;99.90;;;;;;4940156;28;93630;-32
2022/07/30 10:10:01;;;;;;;12.70;3.95;;;25.90;99.90;;;;;;4940848;28;94658;-33
2022/07/30 10:12:27;;;;;;;4.18;3.53;;;26.00;99.90;;;;;;4941195;28;93077;-32
2022/07/30 10:14:53;;;;;;;4.28;3.83;;;26.00;99.90;;;;;;4939452;28;94835;-34
2022/07/30 10:17:22;;;;;;;6.80;4.20;;;26.10;99.90;;;;;;4939116;28;94832;-33
2022/07/30 10:19:48;;;;;;;6.93;3.85;;;26.30;99.90;;;;;;4940340;28;94666;-33
2022/07/30 10:22:14;;;;;;;4.93;4.30;;;26.30;99.90;;;;;;4941360;28;93858;-33
2022/07/30 10:24:40;;;;;;;4.05;3.67;;;26.20;99.90;;;;;;4945456;28;94339;-33
2022/07/30 10:27:08;;;;;;;4.00;3.60;;;26.00;99.90;;;;;;4942085;28;94419;-35
2022/07/30 10:29:37;;;;;;;6.35;3.65;;;26.10;99.90;;;;;;4946253;28;94493;-34
2022/07/30 10:32:03;;;;;;;9.80;4.57;;;26.20;99.90;;;;;;4942026;28;91468;-32
2022/07/30 10:34:31;;;;;;;5.00;3.53;;;26.20;99.90;;;;;;4939355;28;94139;-32
2022/07/30 10:37:01;;;;;;;7.43;4.45;;;26.20;99.90;;;;;;4946557;28;95033;-31
2022/07/30 10:39:33;;;;;;;5.65;3.97;;;26.10;99.90;;;;;;4949980;28;95419;-34
2022/07/30 10:42:29;;;;;;;6.32;4.20;;;26.10;99.90;;;;;;4949074;28;93303;-31
2022/07/30 10:45:22;;;;;;;4.05;3.63;;;25.80;99.90;;;;;;4951045;28;92763;-31
2022/07/30 10:47:53;;;;;;;3.83;3.53;;;25.60;99.90;;;;;;4940589;28;94680;-32
2022/07/30 10:50:25;;;;;;;3.92;3.30;;;25.50;99.90;;;;;;4936955;28;94558;-33
2022/07/30 10:52:52;;;;;;;5.50;3.85;;;25.50;99.90;;;;;;4939939;28;93250;-33
2022/07/30 10:55:24;;;;;;;6.67;3.00;;;25.60;99.90;;;;;;4937600;28;92265;-33
2022/07/30 10:58:09;;;;;;;3.47;3.17;;;25.70;99.90;;;;;;4949212;28;93893;-33
2022/07/30 11:00:47;;;;;;;9.73;4.13;;;25.90;99.90;;;;;;4930048;28;93546;-31
2022/07/30 11:03:22;;;;;;;7.30;4.45;;;26.10;99.90;;;;;;4951110;28;92151;-32
2022/07/30 11:06:08;;;;;;;5.65;3.78;;;26.20;99.90;;;;;;4948637;28;93604;-33
2022/07/30 11:08:39;;;;;;;5.28;3.50;;;26.20;99.90;;;;;;4925926;28;95230;-33
2022/07/30 11:11:27;;;;;;;5.05;3.75;;;26.00;99.90;;;;;;4937816;28;94474;-31
2022/07/30 11:13:57;;;;;;;7.28;4.13;;;25.90;99.90;;;;;;4937966;28;94116;-34
2022/07/30 11:16:30;;;;;;;8.95;3.45;;;25.90;99.90;;;;;;4943568;28;92403;-33
2022/07/30 11:19:04;;;;;;;4.00;3.67;;;26.00;99.90;;;;;;4939144;28;95285;-33
2022/07/30 11:21:31;;;;;;;8.65;3.72;;;26.10;96.00;;;;;;4941298;28;93967;-32
2022/07/30 11:23:57;;;;;;;5.10;3.90;;;26.10;95.30;;;;;;4937905;28;92471;-32
2022/07/30 11:26:38;;;;;;;4.67;3.47;;;26.10;95.20;;;;;;4942172;28;93351;-31
2022/07/30 11:29:05;;;;;;;5.10;3.60;;;26.10;92.00;;;;;;4940246;28;94773;-32
2022/07/30 11:31:36;;;;;;;6.00;3.50;;;26.10;87.80;;;;;;4937015;28;95694;-33
2022/07/30 11:34:17;;;;;;;5.43;3.33;;;26.10;83.10;;;;;;4940762;28;92274;-33
2022/07/30 11:37:05;;;;;;;3.95;3.28;;;26.10;89.00;;;;;;4939091;28;93518;-32
2022/07/30 11:39:53;;;;;;;4.45;4.05;;;26.20;89.40;;;;;;4938165;28;96303;-32
2022/07/30 11:42:28;;;;;;;;;;;26.20;90.60;;;;;;4938952;28;94697;-33
2022/07/30 11:45:30;;;;;;;12.32;3.33;;;25.90;92.30;;;;;;4939889;28;94102;-33
2022/07/30 11:47:56;;;;;;;3.13;2.83;;;25.90;96.00;;;;;;4860209;28;94824;-32
2022/07/30 11:50:33;;;;;;;8.43;3.03;;;26.00;91.30;;;;;;4920490;28;93865;-34
2022/07/30 11:53:07;;;;;;;5.00;3.40;;;26.00;86.50;;;;;;4936391;28;94740;-34
2022/07/30 11:55:34;;;;;;;3.88;3.33;;;25.90;87.60;;;;;;4935347;28;93244;-32
2022/07/30 11:58:03;;;;;;;5.50;3.45;;;25.90;90.30;;;;;;4935806;28;93783;-32
2022/07/30 12:00:41;;;;;;;7.05;4.07;;;25.90;92.20;;;;;;4936082;28;94666;-35
2022/07/30 12:03:09;;;;;;;4.25;3.13;;;25.80;93.50;;;;;;4938898;28;95045;-33
2022/07/30 12:05:34;;;;;;;7.70;2.90;;;25.80;93.50;;;;;;4937201;28;92328;-32
2022/07/30 12:08:00;;;;;;;8.98;3.67;;;26.00;89.00;;;;;;4938173;28;93363;-33
2022/07/30 12:10:26;;;;;;;7.60;3.25;;;26.00;89.10;;;;;;4937010;28;94446;-32
2022/07/30 12:12:51;;;;;;;5.15;3.35;;;26.10;87.40;;;;;;4935805;28;94054;-32
2022/07/30 12:15:32;;;;;;;5.72;3.22;;;26.10;89.30;;;;;;4979393;22;92289;-32
2022/07/30 12:17:59;;;;;;;6.63;3.55;;;26.10;92.30;;;;;;4938166;28;92700;-32
2022/07/30 12:20:26;;;;;;;2.58;2.38;;;26.10;89.50;;;;;;4935297;28;94278;-33
2022/07/30 12:22:51;;;;;;;6.25;3.80;;;26.00;90.80;;;;;;4934567;28;96568;-33
2022/07/30 12:25:18;;;;;;;4.30;2.58;;;25.80;90.10;;;;;;4935759;28;93745;-33
2022/07/30 12:27:48;;;;;;;5.90;3.47;;;25.80;90.50;;;;;;4936205;28;93453;-33
2022/07/30 12:30:16;;;;;;;4.93;3.22;;;25.80;84.30;;;;;;4935841;28;94776;-32
2022/07/30 12:32:45;;;;;;;2.80;2.60;;;25.80;84.60;;;;;;4936304;28;94162;-33
2022/07/30 12:35:11;;;;;;;4.82;3.35;;;25.80;85.10;;;;;;4938532;28;93115;-33
2022/07/30 12:37:37;;;;;;;2.70;2.50;;;25.90;83.90;;;;;;4934828;28;94659;-32
2022/07/30 12:40:15;;;;;;;3.05;2.85;;;25.80;84.70;;;;;;4936460;28;94038;-32
2022/07/30 12:42:52;;;;;;;;;;;25.70;84.90;;;;;;4935952;28;94219;-34
2022/07/30 12:45:25;;;;;;;;;;;25.60;88.60;;;;;;4948697;28;92240;-32
2022/07/30 12:47:50;;;;;;;6.03;3.97;;;25.40;91.10;;;;;;4945714;28;93504;-32
2022/07/30 12:50:16;;;;;;;3.85;2.83;;;25.10;93.40;;;;;;4936555;28;94952;-32
2022/07/30 12:52:50;;;;;;;4.35;3.72;;;25.00;95.70;;;;;;4935290;28;93987;-31